Time;durP1;ratioP1;P1;durP2;ratioP2;P2;SDS_P1;SDS_P2;PMS_P1;PMS_P2;Temp;Humidity;BMP_temperature;BMP_pressure;BME280_temperature;BME280_humidity;BME280_pressure;Samples;Min_cycle;Max_cycle;Signal;HPM_P1;HPM_P2
2021/03/28 00:00:57;;;;;;;6.90;1.10;;;;;;;3.95;69.44;101369.05;114821;1202;23580;-56
2021/03/28 00:03:31;;;;;;;7.40;1.10;;;;;;;3.93;69.43;101371.43;114796;1202;23126;-58
2021/03/28 00:06:15;;;;;;;10.83;1.30;;;;;;;3.91;69.58;101375.81;115133;1202;25967;-58
2021/03/28 00:08:47;;;;;;;5.95;1.20;;;;;;;3.88;69.56;101373.84;115281;1202;23115;-58
2021/03/28 00:11:21;;;;;;;6.45;1.15;;;;;;;3.84;69.70;101373.88;115377;1200;27201;-56
2021/03/28 00:13:57;;;;;;;8.70;1.40;;;;;;;3.83;69.64;101377.03;115146;1197;27917;-56
2021/03/28 00:16:29;;;;;;;7.45;1.30;;;;;;;3.80;69.60;101373.13;115195;1201;23095;-56
2021/03/28 00:19:03;;;;;;;11.07;1.60;;;;;;;3.77;69.55;101368.41;115093;1197;23584;-57
2021/03/28 00:21:34;;;;;;;7.60;1.30;;;;;;;3.74;69.74;101377.52;115230;1201;24768;-58
2021/03/28 00:24:20;;;;;;;8.00;1.30;;;;;;;3.71;69.82;101374.75;115142;1197;23095;-56
2021/03/28 00:27:05;;;;;;;6.70;1.25;;;;;;;3.65;69.82;101382.69;115176;1202;24743;-58
2021/03/28 00:29:47;;;;;;;11.05;1.65;;;;;;;3.63;69.79;101389.80;115116;1196;24767;-57
2021/03/28 00:32:24;;;;;;;7.73;1.20;;;;;;;3.58;70.08;101381.96;115170;1201;23106;-57
2021/03/28 00:35:05;;;;;;;8.55;1.30;;;;;;;3.56;70.11;101389.86;115118;1202;23243;-59
2021/03/28 00:37:36;;;;;;;10.60;1.70;;;;;;;3.54;70.00;101384.72;115128;1201;23125;-58
2021/03/28 00:40:14;;;;;;;;;;;;;;;3.51;70.25;101382.78;115268;1204;23109;-57
2021/03/28 00:42:45;;;;;;;7.40;1.40;;;;;;;3.46;70.21;101388.72;115025;1202;21672;-58
2021/03/28 00:45:23;;;;;;;5.60;1.23;;;;;;;3.42;70.09;101379.67;115121;1201;23180;-57
2021/03/28 00:48:08;;;;;;;11.20;1.70;;;;;;;3.41;70.43;101389.16;115132;1203;23237;-57
2021/03/28 00:50:41;;;;;;;12.40;2.15;;;;;;;3.37;70.52;101382.08;115004;1202;23241;-55
2021/03/28 00:53:11;;;;;;;12.05;1.60;;;;;;;3.34;70.32;101391.15;115072;1200;23304;-58
2021/03/28 00:55:55;;;;;;;10.13;1.90;;;;;;;3.30;70.43;101393.94;115167;1201;23103;-57
2021/03/28 00:58:29;;;;;;;13.57;1.80;;;;;;;3.26;70.44;101387.64;115122;1202;23256;-58
2021/03/28 01:01:27;;;;;;;9.37;1.63;;;;;;;3.23;70.39;101396.72;115017;1201;23166;-57
2021/03/28 01:04:29;;;;;;;11.83;2.17;;;;;;;3.19;70.82;101398.70;115185;1197;23440;-52
2021/03/28 01:07:11;;;;;;;12.90;2.55;;;;;;;3.16;70.84;101402.28;115000;1202;24747;-53
2021/03/28 01:10:01;;;;;;;12.13;2.10;;;;;;;3.14;71.01;101399.14;115177;1201;23097;-54
2021/03/28 01:13:12;;;;;;;10.58;1.80;;;;;;;3.11;70.95;101406.23;115165;1202;24371;-55
2021/03/28 01:16:21;;;;;;;12.05;1.85;;;;;;;3.13;70.99;101405.83;115162;1202;23098;-55
2021/03/28 01:19:05;;;;;;;8.45;1.80;;;;;;;3.15;71.24;101408.97;114766;1200;23181;-53
2021/03/28 01:21:45;;;;;;;10.73;1.90;;;;;;;3.17;71.28;101407.39;114661;1203;23106;-55
2021/03/28 01:24:26;;;;;;;7.05;1.20;;;;;;;3.21;71.43;101408.16;114656;1199;23468;-53
2021/03/28 01:27:23;;;;;;;10.55;1.75;;;;;;;3.24;71.30;101404.61;114532;1203;23100;-55
2021/03/28 01:29:56;;;;;;;6.73;1.30;;;;;;;3.27;71.50;101406.55;114608;1200;23112;-56
2021/03/28 01:32:33;;;;;;;6.65;1.50;;;;;;;3.29;71.33;101406.94;114739;1200;26133;-54
2021/03/28 01:35:20;;;;;;;9.40;1.50;;;;;;;3.30;71.17;101402.22;114632;1200;23123;-53
2021/03/28 01:37:56;;;;;;;6.47;1.30;;;;;;;3.29;71.29;101415.22;114614;1200;23383;-56
2021/03/28 01:40:34;;;;;;;10.45;1.80;;;;;;;3.28;71.21;101416.42;114582;1203;23108;-56
2021/03/28 01:43:16;;;;;;;8.30;1.50;;;;;;;3.25;71.24;101410.90;114630;1203;23244;-54
2021/03/28 01:45:52;;;;;;;5.30;1.03;;;;;;;3.22;71.31;101414.47;114607;1203;23188;-53
2021/03/28 01:48:46;;;;;;;8.75;1.60;;;;;;;3.19;71.28;101421.58;114629;1203;23134;-54
2021/03/28 01:51:45;;;;;;;6.57;1.40;;;;;;;3.15;71.40;101425.53;114579;1203;23109;-55
2021/03/28 01:54:25;;;;;;;8.90;1.50;;;;;;;3.12;71.42;101424.34;114855;1203;23184;-54
2021/03/28 01:57:02;;;;;;;7.13;1.90;;;;;;;3.09;71.54;101421.61;115136;1197;23321;-53
2021/03/28 01:59:41;;;;;;;4.83;1.20;;;;;;;3.06;71.61;101422.42;115243;1201;23096;-54
2021/03/28 02:02:33;;;;;;;5.25;1.30;;;;;;;3.05;71.70;101424.39;115285;1202;26018;-55
2021/03/28 02:05:16;;;;;;;7.55;1.40;;;;;;;3.04;71.69;101422.80;115219;1202;23102;-55
2021/03/28 02:08:09;;;;;;;6.90;1.30;;;;;;;3.04;71.54;101424.80;115173;1196;23099;-54
2021/03/28 02:11:06;;;;;;;7.03;1.37;;;;;;;3.03;71.77;101417.69;115152;1202;23096;-56
2021/03/28 02:13:52;;;;;;;5.77;1.40;;;;;;;3.02;71.80;101427.17;115099;1202;23089;-56
2021/03/28 02:16:26;;;;;;;8.63;1.60;;;;;;;3.04;71.95;101433.84;115206;1202;27333;-53
2021/03/28 02:19:08;;;;;;;5.77;1.47;;;;;;;3.06;72.04;101436.98;115268;1197;23099;-56
2021/03/28 02:22:01;;;;;;;7.30;1.63;;;;;;;3.06;72.13;101428.70;115209;1201;26315;-55
2021/03/28 02:24:44;;;;;;;7.77;1.10;;;;;;;3.08;71.99;101436.61;115460;1197;23234;-54
2021/03/28 02:27:19;;;;;;;8.10;1.60;;;;;;;3.08;72.06;101433.84;115212;1201;23096;-54
2021/03/28 02:29:59;;;;;;;7.10;1.40;;;;;;;3.07;72.10;101438.57;115290;1196;24874;-54
2021/03/28 02:32:43;;;;;;;8.07;2.00;;;;;;;3.06;72.08;101439.74;115386;1202;23095;-54
2021/03/28 02:35:36;;;;;;;6.40;1.30;;;;;;;3.05;72.02;101446.46;115242;1196;26957;-56
2021/03/28 02:38:14;;;;;;;8.50;1.45;;;;;;;3.03;71.87;101446.08;115153;1201;23131;-57
2021/03/28 02:40:50;;;;;;;7.17;1.77;;;;;;;3.02;72.20;101450.00;115295;1196;26248;-53
2021/03/28 02:43:32;;;;;;;10.00;1.53;;;;;;;2.98;72.31;101451.22;115180;1196;23093;-55
2021/03/28 02:46:14;;;;;;;8.10;2.40;;;;;;;2.97;72.31;101452.39;115132;1202;24892;-55
2021/03/28 02:49:03;;;;;;;10.53;1.80;;;;;;;2.96;72.25;101450.83;115130;1197;23089;-53
2021/03/28 02:51:47;;;;;;;8.70;1.97;;;;;;;2.94;72.27;101453.17;115194;1202;23163;-53
2021/03/28 02:54:36;;;;;;;8.33;1.83;;;;;;;2.91;72.40;101449.27;115184;1202;23095;-54
2021/03/28 02:57:19;;;;;;;8.25;1.75;;;;;;;2.90;72.47;101458.70;115226;1200;23233;-55
2021/03/28 03:00:14;;;;;;;10.67;2.27;;;;;;;2.88;72.45;101449.25;115214;1203;23115;-55
2021/03/28 03:03:13;;;;;;;8.13;2.07;;;;;;;2.85;72.61;101461.89;115242;1201;23240;-54
2021/03/28 03:06:02;;;;;;;11.70;2.47;;;;;;;2.82;72.46;101464.63;114665;1203;23109;-55
2021/03/28 03:08:40;;;;;;;11.30;2.40;;;;;;;2.81;72.64;101469.38;114677;1199;26195;-54
2021/03/28 03:11:39;;;;;;;11.95;2.35;;;;;;;2.79;72.58;101462.69;114792;1203;23096;-53
2021/03/28 03:14:31;;;;;;;12.97;2.77;;;;;;;2.76;72.61;101474.49;115211;1203;23247;-56
2021/03/28 03:17:32;;;;;;;10.20;2.47;;;;;;;2.73;72.50;101476.06;114721;1200;23120;-57
2021/03/28 03:20:33;;;;;;;8.60;2.10;;;;;;;2.69;72.66;101480.03;114667;1203;23116;-56
2021/03/28 03:23:46;;;;;;;13.30;2.20;;;;;;;2.65;72.72;101482.00;114704;1203;23248;-56
2021/03/28 03:26:43;;;;;;;13.63;2.93;;;;;;;2.60;72.94;101482.39;114601;1205;23145;-57
2021/03/28 03:29:43;;;;;;;15.00;3.25;;;;;;;2.56;72.91;101487.91;114482;1206;23116;-56
2021/03/28 03:32:45;;;;;;;13.60;3.05;;;;;;;2.52;72.85;101481.62;114485;1208;23151;-53
2021/03/28 03:35:34;;;;;;;12.15;2.95;;;;;;;2.48;73.07;101483.59;114116;1209;23140;-56
2021/03/28 03:38:27;;;;;;;12.07;2.53;;;;;;;2.45;72.92;101485.16;114532;1209;24785;-54
2021/03/28 03:41:14;;;;;;;10.70;2.55;;;;;;;2.42;73.21;101483.17;114354;1209;27981;-57
2021/03/28 03:44:15;;;;;;;13.17;3.20;;;;;;;2.40;73.18;101493.80;114408;1206;23134;-55
2021/03/28 03:47:07;;;;;;;12.80;2.90;;;;;;;2.39;73.16;101497.76;114421;1209;23206;-55
2021/03/28 03:50:08;;;;;;;16.10;4.55;;;;;;;2.39;73.19;101502.47;114130;1209;24844;-56
2021/03/28 03:52:55;;;;;;;10.48;2.98;;;;;;;2.36;73.40;101497.73;114077;1209;23104;-54
2021/03/28 03:55:34;;;;;;;14.60;3.30;;;;;;;2.33;73.48;101499.33;114227;1209;23132;-54
2021/03/28 03:58:22;;;;;;;14.50;3.00;;;;;;;2.31;73.68;101507.20;113992;1209;23149;-56
2021/03/28 04:00:57;;;;;;;15.10;3.20;;;;;;;2.30;73.48;101504.82;114292;1203;23112;-56
2021/03/28 04:03:32;;;;;;;11.37;3.40;;;;;;;2.27;73.72;101509.17;114803;1208;23267;-53
2021/03/28 04:06:25;;;;;;;11.75;2.75;;;;;;;2.26;73.71;101513.09;114458;1205;23568;-56
2021/03/28 04:09:18;;;;;;;11.95;3.20;;;;;;;2.25;74.01;101519.00;114707;1203;23254;-56
2021/03/28 04:12:06;;;;;;;11.80;2.40;;;;;;;2.23;73.99;101522.16;114730;1203;23111;-56
2021/03/28 04:14:49;;;;;;;13.27;2.57;;;;;;;2.23;73.90;101530.42;114661;1202;23239;-55
2021/03/28 04:17:34;;;;;;;11.70;2.80;;;;;;;2.22;74.03;101533.55;114670;1202;26284;-56
2021/03/28 04:20:09;;;;;;;11.80;2.70;;;;;;;2.21;74.06;101531.98;114695;1202;23085;-57
2021/03/28 04:22:58;;;;;;;12.20;2.97;;;;;;;2.18;74.06;101539.06;114939;1202;26173;-57
2021/03/28 04:25:43;;;;;;;15.07;2.93;;;;;;;2.18;74.15;101543.77;115241;1203;23160;-57
2021/03/28 04:28:44;;;;;;;12.15;3.60;;;;;;;2.14;73.93;101543.77;115355;1197;23093;-53
2021/03/28 04:31:52;;;;;;;14.58;3.35;;;;;;;2.10;73.95;101545.73;115052;1203;25020;-56
2021/03/28 04:34:25;;;;;;;12.60;2.70;;;;;;;2.07;74.20;101540.22;114671;1200;26156;-54
2021/03/28 04:37:14;;;;;;;15.35;3.20;;;;;;;2.06;73.98;101541.39;114840;1200;25972;-53
2021/03/28 04:40:19;;;;;;;14.60;3.25;;;;;;;2.03;74.23;101540.20;114680;1200;26875;-55
2021/03/28 04:43:23;;;;;;;16.00;4.10;;;;;;;2.00;74.35;101548.45;114672;1200;23273;-54
2021/03/28 04:46:20;;;;;;;9.70;2.90;;;;;;;1.97;74.28;101552.77;114589;1206;23240;-55
2021/03/28 04:49:07;;;;;;;12.30;3.40;;;;;;;1.94;74.33;101550.02;114466;1209;23146;-53
2021/03/28 04:52:10;;;;;;;13.40;2.80;;;;;;;1.91;74.26;101559.83;114465;1209;27640;-57
2021/03/28 04:55:06;;;;;;;14.80;3.20;;;;;;;1.89;74.59;101555.89;114223;1210;23183;-53
2021/03/28 04:58:09;;;;;;;12.97;3.23;;;;;;;1.87;74.44;101556.28;114071;1206;26093;-53
2021/03/28 05:01:07;;;;;;;13.45;3.25;;;;;;;1.85;74.48;101561.39;114114;1211;26265;-54
2021/03/28 05:04:08;;;;;;;15.45;4.15;;;;;;;1.85;74.94;101569.65;114154;1206;24788;-57
2021/03/28 05:07:15;;;;;;;18.70;4.50;;;;;;;1.83;74.68;101566.50;114075;1211;27399;-54
2021/03/28 05:10:15;;;;;;;14.00;3.90;;;;;;;1.82;74.63;101559.40;114110;1209;23316;-55
2021/03/28 05:13:17;;;;;;;13.20;3.10;;;;;;;1.82;74.72;101575.92;114403;1209;23138;-53
2021/03/28 05:16:12;;;;;;;14.00;3.00;;;;;;;1.81;75.01;101574.36;114379;1209;23134;-53
2021/03/28 05:19:13;;;;;;;13.95;3.40;;;;;;;1.82;74.82;101577.91;114422;1206;23354;-56
2021/03/28 05:22:24;;;;;;;15.30;3.40;;;;;;;1.83;75.01;101580.27;114055;1209;23125;-56
2021/03/28 05:25:28;;;;;;;13.05;3.55;;;;;;;1.86;75.01;101578.70;114134;1206;23162;-56
2021/03/28 05:28:21;;;;;;;11.60;3.20;;;;;;;1.89;74.90;101591.69;114073;1209;23188;-56
2021/03/28 05:31:23;;;;;;;15.10;3.50;;;;;;;1.90;74.97;101596.83;114146;1209;23131;-54
2021/03/28 05:34:34;;;;;;;14.37;3.13;;;;;;;1.93;74.97;101595.23;114412;1206;23131;-54
2021/03/28 05:37:39;;;;;;;13.90;4.30;;;;;;;1.97;75.13;101604.30;114105;1209;23140;-55
2021/03/28 05:40:36;;;;;;;18.50;4.10;;;;;;;2.01;75.13;101600.39;114136;1208;23143;-56
2021/03/28 05:43:54;;;;;;;13.70;3.90;;;;;;;2.06;75.14;101601.98;114310;1208;23129;-56
2021/03/28 05:46:52;;;;;;;18.15;4.45;;;;;;;2.09;75.17;101607.50;114441;1211;24564;-55
2021/03/28 05:49:50;;;;;;;18.50;4.60;;;;;;;2.14;75.45;101609.89;114165;1211;23357;-54
2021/03/28 05:52:49;;;;;;;21.00;4.43;;;;;;;2.16;75.66;101615.80;114539;1212;24648;-56
2021/03/28 05:55:44;;;;;;;18.10;3.90;;;;;;;2.20;75.77;101616.59;114036;1206;24787;-56
2021/03/28 05:58:42;;;;;;;18.20;4.10;;;;;;;2.26;75.63;101617.00;114383;1209;23135;-55
2021/03/28 06:01:48;;;;;;;14.95;4.10;;;;;;;2.32;75.79;101621.75;114083;1208;23409;-54
2021/03/28 06:05:06;;;;;;;15.65;4.00;;;;;;;2.40;75.78;101628.08;114441;1203;23157;-53
2021/03/28 06:08:29;;;;;;;16.25;3.50;;;;;;;2.46;75.61;101630.05;114668;1207;23698;-53
2021/03/28 06:11:32;;;;;;;16.55;4.00;;;;;;;2.57;75.65;101634.79;114405;1209;23133;-54
2021/03/28 06:14:14;;;;;;;;;;;;;;;2.67;75.60;101631.28;114396;1203;27057;-55
2021/03/28 06:17:03;;;;;;;13.45;3.20;;;;;;;2.76;75.64;101643.50;114450;1203;23100;-56
2021/03/28 06:20:03;;;;;;;22.75;5.05;;;;;;;2.86;75.43;101645.48;114487;1206;23141;-57
2021/03/28 06:23:19;;;;;;;20.83;5.25;;;;;;;2.97;75.33;101637.21;114693;1203;23124;-56
2021/03/28 06:26:38;;;;;;;16.55;2.30;;;;;;;3.07;75.42;101642.73;114831;1200;26230;-56
2021/03/28 06:29:48;;;;;;;12.70;2.30;;;;;;;3.21;75.16;101650.20;114692;1203;23191;-55
2021/03/28 06:32:57;;;;;;;12.65;2.00;;;;;;;3.33;74.96;101658.11;114642;1200;23102;-56
2021/03/28 06:35:51;;;;;;;9.13;2.00;;;;;;;3.44;74.75;101661.63;114607;1203;23555;-55
2021/03/28 06:39:03;;;;;;;12.10;2.10;;;;;;;3.53;74.69;101663.99;114612;1203;25769;-53
2021/03/28 06:41:51;;;;;;;17.45;4.05;;;;;;;3.64;74.57;101665.53;114597;1203;23109;-55
2021/03/28 06:44:55;;;;;;;15.30;2.60;;;;;;;3.75;74.50;101659.99;115235;1197;23093;-56
2021/03/28 06:48:13;;;;;;;12.40;2.30;;;;;;;3.89;74.43;101659.98;114602;1203;23405;-53
2021/03/28 06:51:23;;;;;;;14.67;2.33;;;;;;;4.02;73.86;101667.42;114665;1203;23111;-54
2021/03/28 06:54:25;;;;;;;7.70;1.50;;;;;;;4.14;73.88;101668.95;114683;1200;23102;-55
2021/03/28 06:57:26;;;;;;;11.73;1.63;;;;;;;4.25;73.87;101666.14;114589;1203;23292;-55
2021/03/28 07:00:02;;;;;;;;;;;;;;;4.38;73.47;101667.28;114641;1207;23185;-54
2021/03/28 07:03:03;;;;;;;9.40;1.40;;;;;;;4.48;73.21;101660.91;114626;1203;21614;-57
2021/03/28 07:05:40;;;;;;;13.97;1.93;;;;;;;4.59;72.97;101662.41;114436;1206;23121;-54
2021/03/28 07:08:34;;;;;;;10.30;1.63;;;;;;;4.72;73.30;101662.73;114434;1206;23124;-55
2021/03/28 07:11:27;;;;;;;10.10;2.00;;;;;;;4.80;72.58;101673.34;114499;1206;23122;-53
2021/03/28 07:14:26;;;;;;;9.60;1.50;;;;;;;4.88;72.34;101665.81;114397;1206;23557;-56
2021/03/28 07:17:18;;;;;;;11.45;2.00;;;;;;;4.98;72.74;101664.94;114409;1208;24622;-55
2021/03/28 07:20:11;;;;;;;16.90;1.90;;;;;;;5.09;72.50;101667.63;114419;1206;23155;-55
2021/03/28 07:23:06;;;;;;;11.00;1.80;;;;;;;5.19;71.97;101672.30;114419;1206;23238;-57
2021/03/28 07:25:55;;;;;;;10.80;1.70;;;;;;;5.27;71.48;101668.27;114541;1202;26332;-55
2021/03/28 07:29:03;;;;;;;11.85;1.70;;;;;;;5.34;71.14;101677.30;114462;1204;23130;-57
2021/03/28 07:32:04;;;;;;;12.70;2.10;;;;;;;5.43;71.21;101671.28;114525;1206;23150;-53
2021/03/28 07:35:19;;;;;;;10.40;2.00;;;;;;;5.54;71.25;101660.91;114402;1208;23141;-57
2021/03/28 07:38:37;;;;;;;12.10;1.80;;;;;;;5.70;71.06;101672.22;114135;1212;26195;-56
2021/03/28 07:41:34;;;;;;;9.80;2.00;;;;;;;5.79;70.42;101677.28;113786;1215;23137;-53
2021/03/28 07:44:36;;;;;;;13.25;1.50;;;;;;;5.80;70.05;101678.84;113690;1212;23166;-56
2021/03/28 07:47:35;;;;;;;13.80;1.80;;;;;;;5.83;69.85;101675.25;113713;1212;23253;-56
2021/03/28 07:50:50;;;;;;;11.00;2.00;;;;;;;5.90;70.33;101675.22;113751;1212;23160;-53
2021/03/28 07:53:59;;;;;;;13.25;2.35;;;;;;;6.02;70.50;101677.45;113662;1209;23157;-57
2021/03/28 07:57:04;;;;;;;10.55;1.60;;;;;;;6.21;69.79;101679.59;114044;1206;23171;-56
2021/03/28 07:59:56;;;;;;;10.87;1.33;;;;;;;6.35;69.41;101677.42;114091;1209;23205;-54
2021/03/28 08:02:56;;;;;;;11.00;1.70;;;;;;;6.47;69.27;101676.90;114040;1212;23133;-56
2021/03/28 08:05:50;;;;;;;14.33;1.73;;;;;;;6.55;68.76;101680.36;114237;1212;24367;-57
2021/03/28 08:08:38;;;;;;;9.40;1.50;;;;;;;6.63;68.71;101683.80;114089;1209;24785;-56
2021/03/28 08:11:29;;;;;;;13.70;1.90;;;;;;;6.68;68.22;101688.91;114281;1203;23098;-55
2021/03/28 08:14:27;;;;;;;15.40;3.30;;;;;;;6.71;68.08;101679.73;114383;1205;23220;-55
2021/03/28 08:17:19;;;;;;;12.40;1.97;;;;;;;6.75;68.58;101680.46;114702;1203;23106;-57
2021/03/28 08:20:16;;;;;;;9.50;1.90;;;;;;;6.85;68.37;101676.77;115008;1202;23089;-55
2021/03/28 08:23:07;;;;;;;9.47;1.30;;;;;;;6.96;67.55;101678.17;115135;1202;23094;-55
2021/03/28 08:26:01;;;;;;;12.00;1.93;;;;;;;6.97;67.41;101688.06;115239;1202;23178;-58
2021/03/28 08:28:59;;;;;;;11.97;1.63;;;;;;;7.03;67.77;101689.19;115110;1202;23128;-57
2021/03/28 08:31:38;;;;;;;13.37;1.37;;;;;;;7.09;67.58;101681.16;115124;1200;27205;-54
2021/03/28 08:34:44;;;;;;;13.53;1.50;;;;;;;7.14;67.53;101687.01;115186;1202;24552;-57
2021/03/28 08:37:42;;;;;;;10.10;1.27;;;;;;;7.26;66.96;101686.41;115180;1201;26134;-56
2021/03/28 08:40:53;;;;;;;18.50;1.63;;;;;;;7.32;66.54;101681.19;115124;1200;23160;-55
2021/03/28 08:43:59;;;;;;;9.43;1.38;;;;;;;7.39;65.77;101681.05;115034;1196;23095;-57
2021/03/28 08:47:03;;;;;;;8.07;1.40;;;;;;;7.49;65.42;101693.20;115124;1202;23112;-56
2021/03/28 08:49:41;;;;;;;14.00;2.10;;;;;;;7.57;65.13;101680.75;115151;1201;26108;-57
2021/03/28 08:52:53;;;;;;;12.17;1.57;;;;;;;7.61;65.29;101684.26;115143;1202;27256;-55
2021/03/28 08:55:52;;;;;;;7.05;1.25;;;;;;;7.63;64.51;101676.28;114647;1200;26872;-57
2021/03/28 08:58:25;;;;;;;15.03;1.43;;;;;;;7.66;64.07;101680.97;114764;1203;23329;-57
2021/03/28 09:01:02;;;;;;;11.97;1.40;;;;;;;7.71;64.24;101680.50;114671;1203;23109;-57
2021/03/28 09:04:04;;;;;;;12.20;1.35;;;;;;;7.75;64.12;101668.11;114675;1200;23102;-58
2021/03/28 09:07:01;;;;;;;11.67;1.40;;;;;;;7.84;63.96;101667.55;115117;1199;25045;-55
2021/03/28 09:09:57;;;;;;;11.43;1.50;;;;;;;7.95;63.12;101663.34;114662;1203;24285;-58
2021/03/28 09:12:50;;;;;;;11.00;1.30;;;;;;;8.02;62.69;101666.00;114750;1203;23092;-55
2021/03/28 09:15:37;;;;;;;12.15;1.35;;;;;;;8.07;62.74;101671.05;114650;1203;26259;-58
2021/03/28 09:18:22;;;;;;;15.60;1.60;;;;;;;8.11;62.94;101662.66;114734;1200;27361;-58
2021/03/28 09:20:58;;;;;;;11.50;1.50;;;;;;;8.15;62.71;101658.56;114644;1203;23118;-58
2021/03/28 09:23:56;;;;;;;14.35;2.30;;;;;;;8.23;62.85;101662.01;114857;1200;23115;-57
2021/03/28 09:26:33;;;;;;;7.85;1.20;;;;;;;8.28;62.31;101666.29;114704;1203;27262;-56
2021/03/28 09:29:18;;;;;;;8.40;1.05;;;;;;;8.33;61.30;101668.58;114833;1203;23099;-60
2021/03/28 09:32:20;;;;;;;9.93;1.10;;;;;;;8.34;60.66;101670.17;115028;1196;24880;-58
2021/03/28 09:35:02;;;;;;;13.00;1.10;;;;;;;8.34;60.74;101670.93;115169;1199;23235;-57
2021/03/28 09:37:40;;;;;;;9.20;1.60;;;;;;;8.33;61.05;101671.36;115032;1200;23089;-58
2021/03/28 09:40:24;;;;;;;10.90;1.50;;;;;;;8.38;59.98;101676.44;115068;1199;26958;-57
2021/03/28 09:43:15;;;;;;;12.67;1.60;;;;;;;8.33;59.48;101666.59;115105;1199;23198;-56
2021/03/28 09:46:13;;;;;;;6.13;1.03;;;;;;;8.30;60.31;101659.09;114909;1199;23218;-58
2021/03/28 09:49:06;;;;;;;7.97;1.30;;;;;;;8.33;58.57;101663.02;115211;1197;27198;-59
2021/03/28 09:52:18;;;;;;;8.57;1.10;;;;;;;8.32;58.98;101661.47;115164;1199;23131;-56
2021/03/28 09:55:24;;;;;;;11.90;1.30;;;;;;;8.33;59.64;101660.23;115143;1196;23095;-59
2021/03/28 09:58:28;;;;;;;14.43;1.40;;;;;;;8.38;59.10;101656.96;115069;1199;24765;-59
2021/03/28 10:01:07;;;;;;;9.50;1.70;;;;;;;8.37;59.16;101664.52;115452;1196;23121;-58
2021/03/28 10:03:48;;;;;;;12.30;1.50;;;;;;;8.39;59.04;101669.64;115132;1199;23233;-57
2021/03/28 10:06:18;;;;;;;;;;;;;;;8.43;58.80;101671.14;115031;1203;23092;-57
2021/03/28 10:08:51;;;;;;;7.50;1.10;;;;;;;8.43;58.37;101673.14;114953;1196;24386;-58
2021/03/28 10:11:37;;;;;;;14.00;1.70;;;;;;;8.44;58.47;101683.83;115195;1199;23092;-57
2021/03/28 10:14:41;;;;;;;10.20;1.05;;;;;;;8.49;58.46;101671.41;115143;1199;23089;-55
2021/03/28 10:17:39;;;;;;;10.50;1.40;;;;;;;8.56;58.15;101685.19;115000;1199;23565;-59
2021/03/28 10:20:36;;;;;;;11.20;1.80;;;;;;;8.62;58.04;101684.26;114895;1202;23362;-58
2021/03/28 10:23:20;;;;;;;7.50;1.20;;;;;;;8.66;57.74;101693.31;114957;1202;23105;-58
2021/03/28 10:26:01;;;;;;;11.70;1.50;;;;;;;8.69;56.92;101684.09;115148;1200;27208;-59
2021/03/28 10:29:15;;;;;;;10.80;2.50;;;;;;;8.74;57.53;101691.94;115164;1200;23124;-58
2021/03/28 10:31:58;;;;;;;14.03;1.90;;;;;;;8.80;57.05;101686.63;115116;1200;24733;-65
2021/03/28 10:35:09;;;;;;;15.60;2.30;;;;;;;8.85;57.45;101694.48;115418;1200;27363;-60
2021/03/28 10:38:11;;;;;;;11.60;1.95;;;;;;;8.93;57.56;101690.32;115222;1199;23112;-60
2021/03/28 10:40:46;;;;;;;11.20;2.45;;;;;;;9.01;57.11;101683.37;115169;1199;28373;-60
2021/03/28 10:43:56;;;;;;;9.70;1.80;;;;;;;9.08;56.94;101672.06;114895;1200;26117;-59
2021/03/28 10:46:53;;;;;;;;;;;;;;;9.14;56.84;101677.89;115115;1207;25372;-58
2021/03/28 10:50:01;;;;;;;14.23;1.50;;;;;;;9.17;56.00;101677.80;115176;1199;23293;-59
2021/03/28 10:53:00;;;;;;;9.20;1.50;;;;;;;9.29;56.37;101670.77;115199;1202;23106;-60
2021/03/28 10:55:55;;;;;;;8.73;1.30;;;;;;;9.39;55.04;101672.50;115022;1202;23241;-58
2021/03/28 10:59:05;;;;;;;14.80;1.73;;;;;;;9.39;54.34;101678.08;115463;1198;23118;-58
2021/03/28 11:02:17;;;;;;;13.50;1.60;;;;;;;9.40;55.57;101672.05;115066;1200;23097;-58
2021/03/28 11:05:37;;;;;;;14.85;1.50;;;;;;;9.51;54.49;101677.36;114884;1203;23389;-58
2021/03/28 11:08:22;;;;;;;7.70;1.50;;;;;;;9.56;54.44;101671.23;114475;1203;23258;-58
2021/03/28 11:11:14;;;;;;;9.27;1.30;;;;;;;9.59;53.44;101670.38;114500;1203;26403;-58
2021/03/28 11:14:22;;;;;;;13.95;1.60;;;;;;;9.61;52.70;101671.52;114883;1205;23144;-57
2021/03/28 11:17:14;;;;;;;10.87;1.47;;;;;;;9.62;53.36;101669.52;114928;1203;26022;-58
2021/03/28 11:20:14;;;;;;;8.50;1.45;;;;;;;9.65;53.17;101668.63;115181;1200;23386;-59
2021/03/28 11:22:51;;;;;;;9.75;1.35;;;;;;;9.69;52.13;101672.89;115093;1200;23188;-57
2021/03/28 11:25:25;;;;;;;9.75;1.40;;;;;;;9.68;52.54;101668.52;115119;1200;23173;-57
2021/03/28 11:28:40;;;;;;;14.30;2.40;;;;;;;9.70;52.53;101662.53;115266;1200;23280;-58
2021/03/28 11:31:38;;;;;;;9.75;1.75;;;;;;;9.71;51.97;101656.50;115151;1200;25064;-54
2021/03/28 11:34:20;;;;;;;8.00;1.30;;;;;;;9.75;51.88;101657.19;115651;1200;23256;-58
2021/03/28 11:36:59;;;;;;;12.20;1.70;;;;;;;9.81;52.43;101657.43;117790;1200;24771;-58
2021/03/28 11:39:30;;;;;;;12.30;2.00;;;;;;;9.86;52.13;101645.75;115215;1201;23434;-57
2021/03/28 11:42:18;;;;;;;10.67;1.80;;;;;;;9.90;51.93;101648.43;115694;1202;23124;-57
2021/03/28 11:45:36;;;;;;;10.57;1.53;;;;;;;9.93;52.15;101648.33;115312;1199;26300;-56
2021/03/28 11:48:24;;;;;;;15.23;1.90;;;;;;;10.04;51.89;101648.03;115239;1196;23093;-59
2021/03/28 11:50:56;;;;;;;9.60;1.50;;;;;;;10.14;51.42;101649.80;115373;1196;23241;-59
2021/03/28 11:53:36;;;;;;;11.37;1.70;;;;;;;10.21;51.05;101632.83;115733;1196;26313;-62
2021/03/28 11:56:36;;;;;;;12.10;1.40;;;;;;;10.27;50.09;101634.63;115300;1196;23099;-59
2021/03/28 11:59:09;;;;;;;7.35;1.50;;;;;;;10.33;50.17;101637.64;115245;1196;23105;-59
2021/03/28 12:02:17;;;;;;;11.90;2.03;;;;;;;10.33;50.10;101632.06;115233;1199;24460;-60
2021/03/28 12:04:49;;;;;;;10.20;1.87;;;;;;;10.32;49.81;101634.09;115589;1196;23084;-57
2021/03/28 12:07:36;;;;;;;12.43;1.87;;;;;;;10.31;49.86;101640.89;115965;1199;23124;-62
2021/03/28 12:10:33;;;;;;;13.27;1.73;;;;;;;10.32;48.76;101633.30;115466;1199;23184;-57
2021/03/28 12:13:31;;;;;;;10.43;1.57;;;;;;;10.33;49.44;101629.27;115421;1196;24762;-57
2021/03/28 12:16:07;;;;;;;5.57;1.70;;;;;;;10.35;49.37;101627.61;115386;1196;23099;-58
2021/03/28 12:18:56;;;;;;;13.80;1.80;;;;;;;10.39;49.38;101621.91;115306;1199;23123;-58
2021/03/28 12:21:50;;;;;;;13.00;1.70;;;;;;;10.43;49.72;101623.38;115251;1199;23116;-57
2021/03/28 12:24:27;;;;;;;12.57;1.90;;;;;;;10.49;48.76;101620.83;115187;1199;27326;-58
2021/03/28 12:27:28;;;;;;;9.67;1.67;;;;;;;10.51;48.74;101618.38;115064;1195;23096;-58
2021/03/28 12:29:59;;;;;;;8.38;1.30;;;;;;;10.51;48.39;101610.00;114917;1199;23096;-57
2021/03/28 12:32:50;;;;;;;;;;;;;;;10.51;48.53;101616.34;115635;1203;26723;-57
2021/03/28 12:35:58;;;;;;;8.37;1.53;;;;;;;10.48;48.50;101614.45;115007;1196;21665;-58
2021/03/28 12:38:43;;;;;;;11.80;1.90;;;;;;;10.47;48.75;101609.30;114755;1202;23410;-56
2021/03/28 12:41:34;;;;;;;10.13;1.23;;;;;;;10.47;48.21;101615.67;114832;1202;23116;-58
2021/03/28 12:44:30;;;;;;;10.00;1.30;;;;;;;10.50;47.34;101612.00;115369;1199;23183;-57
2021/03/28 12:47:05;;;;;;;7.13;1.30;;;;;;;10.51;47.61;101612.80;115251;1200;23325;-57
2021/03/28 12:49:46;;;;;;;6.40;1.30;;;;;;;10.55;46.81;101616.25;114748;1202;27400;-58
2021/03/28 12:52:41;;;;;;;7.40;1.33;;;;;;;10.58;46.01;101615.34;114907;1200;23106;-59
2021/03/28 12:55:19;;;;;;;10.30;1.40;;;;;;;10.62;47.03;101618.02;114671;1202;23102;-58
2021/03/28 12:57:52;;;;;;;8.80;1.40;;;;;;;10.67;46.55;101607.09;115211;1200;23131;-59
2021/03/28 13:00:43;;;;;;;9.45;1.60;;;;;;;10.71;45.87;101604.97;114878;1199;26438;-59
2021/03/28 13:03:23;;;;;;;6.60;1.60;;;;;;;10.67;44.44;101603.52;118400;1199;22838;-59
2021/03/28 13:06:23;;;;;;;7.97;1.30;;;;;;;10.62;45.47;101607.64;115521;1200;24704;-58
2021/03/28 13:08:58;;;;;;;9.13;1.47;;;;;;;10.57;45.64;101599.84;114754;1203;23132;-57
2021/03/28 13:11:47;;;;;;;10.15;1.30;;;;;;;10.55;45.71;101591.13;114858;1203;23144;-59